Time;durP1;ratioP1;P1;durP2;ratioP2;P2;SDS_P1;SDS_P2;PMS_P1;PMS_P2;Temp;Humidity;BMP_temperature;BMP_pressure;BME280_temperature;BME280_humidity;BME280_pressure;Samples;Min_cycle;Max_cycle;Signal;HPM_P1;HPM_P2
2024/04/16 11:46:39;;;;;;;1.45;0.98;;;;;;;;;;5726355;21;20015;-82
2024/04/16 11:49:04;;;;;;;3.65;1.10;;;;;;;;;;5347068;26;20327;-83
2024/04/16 11:51:32;;;;;;;2.88;1.00;;;;;;;;;;5347207;26;20031;-81
2024/04/16 11:53:57;;;;;;;0.90;0.90;;;;;;;;;;5316730;26;20001;-84
2024/04/16 11:56:23;;;;;;;2.10;0.90;;;;;;;;;;5347209;26;20066;-84
2024/04/16 11:58:49;;;;;;;0.82;0.80;;;;;;;;;;5347368;26;20334;-84
2024/04/16 12:01:14;;;;;;;0.88;0.85;;;;;;;;;;5347099;26;20008;-84
2024/04/16 12:03:40;;;;;;;1.10;1.00;;;;;;;;;;5347005;26;19997;-83
2024/04/16 12:06:05;;;;;;;1.55;0.82;;;;;;;;;;5346889;26;20463;-83
2024/04/16 12:08:31;;;;;;;2.85;0.88;;;;;;;;;;5346994;26;19996;-83
2024/04/16 12:10:56;;;;;;;0.80;0.80;;;;;;;;;;5316536;26;20001;-83
2024/04/16 12:13:22;;;;;;;1.25;1.15;;;;;;;;;;5346935;26;20005;-83
2024/04/16 12:15:47;;;;;;;1.38;1.10;;;;;;;;;;5346663;26;20056;-82
2024/04/16 12:18:13;;;;;;;1.30;1.20;;;;;;;;;;5346643;26;20012;-83
2024/04/16 12:20:38;;;;;;;2.40;1.30;;;;;;;;;;5346752;26;20375;-82
2024/04/16 12:23:04;;;;;;;1.98;1.00;;;;;;;;;;5346833;26;20075;-82
2024/04/16 12:25:29;;;;;;;2.28;1.13;;;;;;;;;;5346690;26;20008;-83
2024/04/16 12:27:55;;;;;;;1.58;1.00;;;;;;;;;;5346591;26;19997;-83
2024/04/16 12:30:20;;;;;;;1.05;0.98;;;;;;;;;;5346699;26;20001;-84
2024/04/16 12:32:45;;;;;;;3.20;1.25;;;;;;;;;;5315869;26;20011;-82
2024/04/16 12:35:11;;;;;;;1.50;1.05;;;;;;;;;;5346364;26;20410;-83
2024/04/16 12:37:36;;;;;;;3.05;0.85;;;;;;;;;;5346404;26;20001;-83
2024/04/16 12:40:01;;;;;;;0.85;0.85;;;;;;;;;;5349261;26;20001;-83
2024/04/16 12:42:27;;;;;;;1.83;0.90;;;;;;;;;;5349961;26;20009;-83
2024/04/16 12:44:53;;;;;;;2.35;0.90;;;;;;;;;;5319113;26;20065;-83
2024/04/16 12:47:18;;;;;;;0.80;0.80;;;;;;;;;;5319421;26;20000;-83
2024/04/16 12:49:43;;;;;;;1.23;0.82;;;;;;;;;;5349953;26;20011;-83
2024/04/16 12:52:09;;;;;;;0.98;0.80;;;;;;;;;;5349607;26;20012;-81
2024/04/16 12:54:35;;;;;;;1.13;0.80;;;;;;;;;;5349683;26;20000;-81
2024/04/16 12:57:01;;;;;;;0.90;0.90;;;;;;;;;;5349786;26;20008;-82
2024/04/16 12:59:26;;;;;;;2.88;0.90;;;;;;;;;;5349715;26;20001;-82
2024/04/16 13:01:51;;;;;;;1.55;0.90;;;;;;;;;;5349749;26;20001;-82
2024/04/16 13:04:17;;;;;;;2.38;0.70;;;;;;;;;;5349532;26;20001;-82
2024/04/16 13:06:42;;;;;;;1.25;0.93;;;;;;;;;;5349544;26;19997;-82
2024/04/16 13:09:08;;;;;;;0.77;0.77;;;;;;;;;;5318748;26;20468;-82
2024/04/16 13:11:33;;;;;;;1.75;1.30;;;;;;;;;;5349391;26;19997;-83
2024/04/16 13:13:58;;;;;;;2.03;1.83;;;;;;;;;;5349626;26;19997;-82
2024/04/16 13:16:24;;;;;;;1.55;1.45;;;;;;;;;;5349443;26;20008;-82
2024/04/16 13:18:49;;;;;;;1.65;0.70;;;;;;;;;;5349264;26;20034;-82
2024/04/16 13:21:15;;;;;;;2.28;0.60;;;;;;;;;;5319060;26;20001;-82
2024/04/16 13:23:41;;;;;;;0.95;0.70;;;;;;;;;;5349272;26;20012;-83
2024/04/16 13:26:06;;;;;;;0.60;0.60;;;;;;;;;;5318645;26;19997;-82
2024/04/16 13:28:31;;;;;;;1.38;1.27;;;;;;;;;;5349334;26;19997;-82
2024/04/16 13:30:59;;;;;;;0.77;0.70;;;;;;;;;;5349331;26;20015;-82
2024/04/16 13:33:28;;;;;;;1.13;0.70;;;;;;;;;;5349295;26;20019;-82
2024/04/16 13:35:54;;;;;;;1.17;0.60;;;;;;;;;;5349109;26;20001;-82
2024/04/16 13:38:21;;;;;;;1.95;0.80;;;;;;;;;;5349376;26;19997;-82
2024/04/16 13:40:47;;;;;;;0.63;0.63;;;;;;;;;;5349394;26;20071;-82
2024/04/16 13:43:18;;;;;;;1.63;0.80;;;;;;;;;;5349072;26;19997;-83
2024/04/16 13:45:44;;;;;;;2.90;1.58;;;;;;;;;;5348807;26;20084;-82
2024/04/16 13:48:10;;;;;;;0.77;0.70;;;;;;;;;;5318380;26;19997;-82
2024/04/16 13:50:42;;;;;;;1.05;0.50;;;;;;;;;;5347596;26;20066;-82
2024/04/16 13:53:08;;;;;;;0.93;0.47;;;;;;;;;;5348890;26;20425;-82
2024/04/16 13:55:35;;;;;;;1.83;0.68;;;;;;;;;;5348760;26;20000;-82
2024/04/16 13:58:01;;;;;;;1.23;0.43;;;;;;;;;;5318278;26;20063;-82
2024/04/16 14:00:27;;;;;;;0.90;0.50;;;;;;;;;;5349037;26;20008;-82
2024/04/16 14:02:52;;;;;;;2.28;0.60;;;;;;;;;;5348704;26;20000;-82
2024/04/16 14:05:18;;;;;;;1.70;0.80;;;;;;;;;;5348997;26;20447;-83
2024/04/16 14:07:43;;;;;;;1.90;0.60;;;;;;;;;;5348806;26;20471;-82
2024/04/16 14:10:09;;;;;;;2.65;0.60;;;;;;;;;;5348871;26;20013;-82
2024/04/16 14:12:34;;;;;;;1.63;0.60;;;;;;;;;;5348449;26;20065;-82
2024/04/16 14:15:00;;;;;;;0.75;0.60;;;;;;;;;;5348472;26;20075;-82
2024/04/16 14:17:25;;;;;;;2.15;0.70;;;;;;;;;;5348487;26;20009;-82
2024/04/16 14:19:50;;;;;;;0.60;0.60;;;;;;;;;;5348605;26;20001;-82
2024/04/16 14:22:19;;;;;;;2.53;0.95;;;;;;;;;;5348532;26;20001;-82
2024/04/16 14:24:45;;;;;;;0.70;0.70;;;;;;;;;;5348504;26;20009;-81
2024/04/16 14:27:10;;;;;;;0.75;0.60;;;;;;;;;;5348482;26;20328;-81
2024/04/16 14:29:37;;;;;;;0.57;0.57;;;;;;;;;;5348399;26;20410;-81
2024/04/16 14:32:02;;;;;;;1.48;0.60;;;;;;;;;;5348262;26;20140;-82
2024/04/16 14:34:28;;;;;;;0.52;0.52;;;;;;;;;;5348476;26;20016;-81
2024/04/16 14:36:54;;;;;;;1.90;0.65;;;;;;;;;;5317667;26;20066;-81
2024/04/16 14:39:20;;;;;;;0.80;0.70;;;;;;;;;;5348260;26;20462;-81
2024/04/16 14:41:48;;;;;;;1.73;0.80;;;;;;;;;;5348474;26;19997;-82
2024/04/16 14:44:13;;;;;;;2.65;0.70;;;;;;;;;;5348119;26;20428;-81
2024/04/16 14:46:39;;;;;;;0.70;0.70;;;;;;;;;;5348036;26;20007;-82
2024/04/16 14:49:05;;;;;;;1.70;0.60;;;;;;;;;;5317546;26;20028;-83
2024/04/16 14:51:30;;;;;;;0.95;0.63;;;;;;;;;;5348387;26;20074;-81
2024/04/16 14:53:56;;;;;;;1.10;0.70;;;;;;;;;;5348245;26;19997;-82
2024/04/16 14:56:21;;;;;;;0.88;0.77;;;;;;;;;;5347931;26;20000;-82
2024/04/16 14:58:47;;;;;;;1.02;0.75;;;;;;;;;;5347989;26;20001;-82
2024/04/16 15:01:13;;;;;;;1.33;0.75;;;;;;;;;;5347787;26;20074;-82
2024/04/16 15:03:39;;;;;;;0.60;0.60;;;;;;;;;;5347961;26;20360;-82
2024/04/16 15:06:05;;;;;;;0.88;0.70;;;;;;;;;;5347856;26;19997;-82
2024/04/16 15:08:30;;;;;;;0.98;0.60;;;;;;;;;;5347735;26;20012;-83
2024/04/16 15:10:55;;;;;;;0.70;0.70;;;;;;;;;;5347740;26;20004;-82
2024/04/16 15:13:21;;;;;;;3.45;0.88;;;;;;;;;;5347761;26;19997;-82
2024/04/16 15:15:59;;;;;;;1.10;0.60;;;;;;;;;;5317074;26;19997;-82
2024/04/16 15:18:25;;;;;;;1.67;0.60;;;;;;;;;;5347699;26;20007;-82
2024/04/16 15:20:51;;;;;;;0.85;0.63;;;;;;;;;;5347797;26;20075;-83
2024/04/16 15:23:16;;;;;;;1.10;0.90;;;;;;;;;;5347990;26;20013;-81
2024/04/16 15:25:42;;;;;;;0.95;0.82;;;;;;;;;;5347493;26;20435;-82
2024/04/16 15:28:07;;;;;;;4.07;2.65;;;;;;;;;;5347827;26;20050;-82
2024/04/16 15:30:33;;;;;;;1.73;0.80;;;;;;;;;;5347696;26;20008;-82
2024/04/16 15:32:58;;;;;;;1.63;1.17;;;;;;;;;;5347312;26;20439;-82
2024/04/16 15:35:24;;;;;;;1.02;0.90;;;;;;;;;;5347558;26;20063;-81
2024/04/16 15:37:49;;;;;;;1.58;0.68;;;;;;;;;;5347712;26;20005;-82
2024/04/16 15:40:15;;;;;;;0.60;0.60;;;;;;;;;;5347479;26;20446;-82
2024/04/16 15:42:40;;;;;;;1.23;1.08;;;;;;;;;;5348454;26;20398;-83
2024/04/16 15:45:06;;;;;;;1.63;0.80;;;;;;;;;;5347476;26;19996;-82
2024/04/16 15:47:31;;;;;;;1.10;0.60;;;;;;;;;;5347242;26;20011;-83
2024/04/16 18:10:36;;;;;;;0.80;0.80;;;;;;;;;;5321140;26;20038;-87
2024/04/16 18:13:01;;;;;;;0.70;0.70;;;;;;;;;;5314482;26;20045;-86
2024/04/16 18:15:26;;;;;;;0.70;0.70;;;;;;;;;;5314679;26;19998;-90
2024/04/16 18:17:52;;;;;;;1.05;0.77;;;;;;;;;;5312624;27;20009;-86
2024/04/16 18:20:17;;;;;;;0.70;0.70;;;;;;;;;;5313094;27;20323;-87
2024/04/16 18:22:43;;;;;;;1.50;0.63;;;;;;;;;;5314634;26;20358;-89
2024/04/16 18:25:08;;;;;;;0.60;0.60;;;;;;;;;;5312785;27;20449;-86
2024/04/16 18:27:35;;;;;;;0.77;0.77;;;;;;;;;;5314625;26;20340;-84
2024/04/16 18:30:01;;;;;;;0.70;0.70;;;;;;;;;;5314480;26;20072;-87
2024/04/16 18:32:27;;;;;;;0.80;0.80;;;;;;;;;;5314386;26;20005;-85
2024/04/16 18:34:52;;;;;;;0.90;0.70;;;;;;;;;;5314685;26;20348;-86
2024/04/16 18:37:20;;;;;;;0.52;0.52;;;;;;;;;;5311568;27;20070;-89
2024/04/16 18:39:46;;;;;;;0.60;0.60;;;;;;;;;;5314632;26;20044;-86
2024/04/16 18:42:16;;;;;;;0.80;0.70;;;;;;;;;;5314266;26;20440;-87
2024/04/16 18:44:44;;;;;;;1.00;0.77;;;;;;;;;;5315232;26;20009;-87
2024/04/16 18:47:10;;;;;;;0.57;0.57;;;;;;;;;;5312877;27;20008;-87
2024/04/16 18:49:35;;;;;;;0.85;0.70;;;;;;;;;;5313188;27;20004;-88
2024/04/16 18:52:00;;;;;;;0.80;0.80;;;;;;;;;;5314821;26;20010;-89
2024/04/16 18:54:26;;;;;;;0.70;0.70;;;;;;;;;;5313986;26;20002;-89
2024/04/16 18:56:52;;;;;;;0.60;0.60;;;;;;;;;;5314017;26;20005;-89
2024/04/16 18:59:18;;;;;;;0.55;0.55;;;;;;;;;;5312724;27;19997;-88
2024/04/16 19:01:43;;;;;;;0.98;0.70;;;;;;;;;;5314033;26;20436;-89
2024/04/16 19:04:09;;;;;;;2.88;0.82;;;;;;;;;;5314838;26;20438;-92
2024/04/16 19:06:35;;;;;;;0.70;0.70;;;;;;;;;;5312634;27;20002;-91
2024/04/16 19:09:00;;;;;;;0.75;0.65;;;;;;;;;;5315139;26;20012;-91
2024/04/16 19:11:26;;;;;;;0.70;0.70;;;;;;;;;;5348827;26;20001;-92
2024/04/16 19:13:51;;;;;;;0.68;0.68;;;;;;;;;;5348476;26;20024;-92
2024/04/16 19:16:18;;;;;;;0.80;0.80;;;;;;;;;;5349120;26;20005;-93
2024/04/16 19:18:43;;;;;;;0.80;0.80;;;;;;;;;;5318906;26;20011;-96
2024/04/16 19:21:09;;;;;;;0.70;0.70;;;;;;;;;;5318753;26;19997;-95
2024/04/16 19:23:35;;;;;;;0.80;0.80;;;;;;;;;;5318811;26;20015;-94
2024/04/16 19:26:01;;;;;;;0.82;0.82;;;;;;;;;;5348739;26;20000;-94
2024/04/16 19:28:27;;;;;;;0.60;0.60;;;;;;;;;;5318426;26;20000;-95
2024/04/16 19:30:52;;;;;;;0.50;0.50;;;;;;;;;;5318177;26;20467;-92
2024/04/16 19:33:18;;;;;;;0.60;0.60;;;;;;;;;;5309787;26;20013;-95
2024/04/16 19:35:43;;;;;;;0.77;0.77;;;;;;;;;;5293076;26;20016;-94
2024/04/16 19:38:09;;;;;;;1.02;0.70;;;;;;;;;;5301829;26;20015;-90
2024/04/16 19:40:34;;;;;;;0.70;0.70;;;;;;;;;;5347883;26;20432;-89
2024/04/16 19:42:59;;;;;;;0.70;0.70;;;;;;;;;;5347939;26;20066;-90
2024/04/16 19:45:25;;;;;;;0.52;0.52;;;;;;;;;;5317364;26;20508;-91
2024/04/16 19:47:51;;;;;;;0.90;0.70;;;;;;;;;;5346673;26;20001;-90
2024/04/16 19:50:30;;;;;;;0.70;0.55;;;;;;;;;;5347536;26;20009;-90
2024/04/16 19:52:55;;;;;;;0.60;0.60;;;;;;;;;;5336413;26;20021;-87
2024/04/16 19:55:20;;;;;;;0.80;0.50;;;;;;;;;;5328899;26;20444;-87
2024/04/16 19:57:46;;;;;;;1.23;0.60;;;;;;;;;;5334818;26;20015;-87
2024/04/16 20:00:11;;;;;;;0.70;0.70;;;;;;;;;;5308543;26;20005;-87
2024/04/16 20:02:37;;;;;;;0.70;0.70;;;;;;;;;;5347861;26;20342;-87
2024/04/16 20:05:03;;;;;;;1.08;0.60;;;;;;;;;;5347637;26;19997;-87
2024/04/16 20:07:29;;;;;;;0.65;0.65;;;;;;;;;;5347728;26;20420;-88
2024/04/16 20:09:55;;;;;;;0.63;0.60;;;;;;;;;;5316823;26;20343;-90
2024/04/16 20:12:21;;;;;;;0.60;0.60;;;;;;;;;;5316807;26;20335;-89
2024/04/16 20:14:46;;;;;;;0.70;0.70;;;;;;;;;;5347461;26;20008;-90
2024/04/16 20:17:13;;;;;;;0.70;0.70;;;;;;;;;;5347072;26;20020;-87
2024/04/16 20:19:38;;;;;;;0.60;0.60;;;;;;;;;;5346953;26;20025;-87
2024/04/16 20:22:07;;;;;;;0.82;0.63;;;;;;;;;;5347152;26;20043;-88
2024/04/16 20:24:35;;;;;;;0.55;0.55;;;;;;;;;;5347248;26;19997;-88
2024/04/16 20:27:02;;;;;;;0.52;0.52;;;;;;;;;;5347000;26;20037;-87
2024/04/16 20:29:27;;;;;;;1.02;0.75;;;;;;;;;;5346867;26;20001;-87
2024/04/16 20:31:53;;;;;;;1.10;0.60;;;;;;;;;;5347017;26;19997;-87
2024/04/16 20:34:21;;;;;;;1.38;0.68;;;;;;;;;;5346614;26;20011;-87
2024/04/16 20:36:47;;;;;;;2.20;0.88;;;;;;;;;;5316608;26;19997;-87
2024/04/16 20:39:14;;;;;;;2.20;0.77;;;;;;;;;;5316420;26;20152;-87
2024/04/16 20:41:39;;;;;;;2.50;1.30;;;;;;;;;;5346711;26;20075;-88
2024/04/16 20:44:05;;;;;;;3.30;0.82;;;;;;;;;;5346982;26;20008;-88
2024/04/16 20:46:30;;;;;;;0.70;0.70;;;;;;;;;;5315145;26;20024;-87
2024/04/16 20:48:56;;;;;;;1.10;1.00;;;;;;;;;;5346730;26;20108;-87
2024/04/16 20:51:21;;;;;;;1.15;0.90;;;;;;;;;;5346427;26;20074;-86
2024/04/16 20:53:47;;;;;;;1.55;1.00;;;;;;;;;;5315948;26;19997;-87
2024/04/16 20:56:12;;;;;;;2.38;0.90;;;;;;;;;;5346388;26;20001;-87
2024/04/16 20:58:38;;;;;;;1.35;1.02;;;;;;;;;;5346557;26;20016;-87
2024/04/16 21:01:03;;;;;;;4.00;1.08;;;;;;;;;;5349394;26;20012;-86
2024/04/16 21:03:29;;;;;;;1.02;0.80;;;;;;;;;;5350062;26;20001;-87
2024/04/16 21:05:55;;;;;;;1.20;0.88;;;;;;;;;;5319237;26;20009;-87
2024/04/16 21:08:20;;;;;;;0.88;0.88;;;;;;;;;;5349891;26;19997;-87
2024/04/16 21:10:46;;;;;;;2.35;1.27;;;;;;;;;;5318913;26;20048;-87
2024/04/16 21:13:11;;;;;;;2.47;0.80;;;;;;;;;;5313809;26;20353;-88
2024/04/16 21:15:38;;;;;;;1.70;1.13;;;;;;;;;;5297333;27;20012;-87
2024/04/16 21:18:04;;;;;;;1.45;0.98;;;;;;;;;;5285010;27;20436;-87
2024/04/16 21:20:30;;;;;;;2.55;1.10;;;;;;;;;;5315366;26;20013;-88
2024/04/16 21:22:55;;;;;;;1.77;1.02;;;;;;;;;;5285053;27;20330;-89
